sensor_id;sensor_type;location;lat;lon;timestamp;pressure;altitude;pressure_sealevel;temperature;humidity
13486;BME280;6815;59.336;17.998;2023-04-06T00:01:51;52167.00;;;-145.37;90.64
13486;BME280;6815;59.336;17.998;2023-04-06T00:04:17;52131.06;;;-145.37;90.85
13486;BME280;6815;59.336;17.998;2023-04-06T00:06:42;52127.09;;;-145.37;90.47
13486;BME280;6815;59.336;17.998;2023-04-06T00:09:08;52127.09;;;-145.37;91.22
13486;BME280;6815;59.336;17.998;2023-04-06T00:11:33;52173.00;;;-145.37;91.28
13486;BME280;6815;59.336;17.998;2023-04-06T00:13:59;52194.94;;;-145.37;91.10
13486;BME280;6815;59.336;17.998;2023-04-06T00:16:24;52165.00;;;-145.37;90.33
13486;BME280;6815;59.336;17.998;2023-04-06T00:18:50;52153.03;;;-145.37;90.44
13486;BME280;6815;59.336;17.998;2023-04-06T00:21:15;52141.06;;;-145.37;90.21
13486;BME280;6815;59.336;17.998;2023-04-06T00:23:41;52165.00;;;-145.37;90.69
13486;BME280;6815;59.336;17.998;2023-04-06T00:26:08;52171.00;;;-145.37;90.47
13486;BME280;6815;59.336;17.998;2023-04-06T00:28:34;52153.03;;;-145.37;89.70
13486;BME280;6815;59.336;17.998;2023-04-06T00:30:59;52159.03;;;-145.37;89.73
13486;BME280;6815;59.336;17.998;2023-04-06T00:33:25;52169.00;;;-145.37;89.62
13486;BME280;6815;59.336;17.998;2023-04-06T00:35:51;52173.00;;;-145.37;89.60
13486;BME280;6815;59.336;17.998;2023-04-06T00:38:17;52204.94;;;-145.37;89.48
13486;BME280;6815;59.336;17.998;2023-04-06T00:40:43;52182.97;;;-145.37;90.28
13486;BME280;6815;59.336;17.998;2023-04-06T00:43:12;52165.00;;;-145.37;89.99
13486;BME280;6815;59.336;17.998;2023-04-06T00:45:38;52157.03;;;-145.37;90.90
13486;BME280;6815;59.336;17.998;2023-04-06T00:48:04;52177.00;;;-145.37;90.93
13486;BME280;6815;59.336;17.998;2023-04-06T00:50:30;52147.03;;;-145.37;90.41
13486;BME280;6815;59.336;17.998;2023-04-06T00:53:01;52175.00;;;-145.37;91.40
13486;BME280;6815;59.336;17.998;2023-04-06T00:55:27;52163.00;;;-145.37;91.17
13486;BME280;6815;59.336;17.998;2023-04-06T00:57:53;52188.97;;;-145.37;91.04
13486;BME280;6815;59.336;17.998;2023-04-06T01:00:18;52149.03;;;-145.37;91.16
13486;BME280;6815;59.336;17.998;2023-04-06T01:02:44;52149.03;;;-145.37;91.13
13486;BME280;6815;59.336;17.998;2023-04-06T01:05:11;52165.00;;;-145.37;91.07
13486;BME280;6815;59.336;17.998;2023-04-06T01:07:36;52163.00;;;-145.37;91.09
13486;BME280;6815;59.336;17.998;2023-04-06T01:10:02;52171.00;;;-145.37;91.64
13486;BME280;6815;59.336;17.998;2023-04-06T01:12:28;52218.91;;;-145.37;91.09
13486;BME280;6815;59.336;17.998;2023-04-06T01:14:54;52196.94;;;-145.37;90.83
13486;BME280;6815;59.336;17.998;2023-04-06T01:17:19;52165.00;;;-145.37;90.87
13486;BME280;6815;59.336;17.998;2023-04-06T01:19:45;52147.03;;;-145.37;90.78
13486;BME280;6815;59.336;17.998;2023-04-06T01:22:16;52149.03;;;-145.37;90.10
13486;BME280;6815;59.336;17.998;2023-04-06T01:24:42;52165.00;;;-145.37;90.40
13486;BME280;6815;59.336;17.998;2023-04-06T01:27:07;52129.06;;;-145.37;90.51
13486;BME280;6815;59.336;17.998;2023-04-06T01:29:32;52131.06;;;-145.37;91.42
13486;BME280;6815;59.336;17.998;2023-04-06T01:31:58;52133.06;;;-145.37;91.67
13486;BME280;6815;59.336;17.998;2023-04-06T01:34:23;52177.00;;;-145.37;91.28
13486;BME280;6815;59.336;17.998;2023-04-06T01:36:49;52147.03;;;-145.37;91.35
13486;BME280;6815;59.336;17.998;2023-04-06T01:39:15;52186.97;;;-145.37;91.24
13486;BME280;6815;59.336;17.998;2023-04-06T01:41:41;52161.03;;;-145.37;91.17
13486;BME280;6815;59.336;17.998;2023-04-06T01:44:06;52141.06;;;-145.37;91.97
13486;BME280;6815;59.336;17.998;2023-04-06T01:46:32;52147.03;;;-145.37;92.57
13486;BME280;6815;59.336;17.998;2023-04-06T01:48:58;52133.06;;;-145.37;91.98
13486;BME280;6815;59.336;17.998;2023-04-06T01:51:23;52169.00;;;-145.37;91.67
13486;BME280;6815;59.336;17.998;2023-04-06T01:53:51;52177.00;;;-145.37;91.77
13486;BME280;6815;59.336;17.998;2023-04-06T01:56:16;52177.00;;;-145.37;91.89
13486;BME280;6815;59.336;17.998;2023-04-06T01:58:42;52163.00;;;-145.37;92.21
13486;BME280;6815;59.336;17.998;2023-04-06T02:01:07;52184.97;;;-145.37;92.08
13486;BME280;6815;59.336;17.998;2023-04-06T02:03:33;52165.00;;;-145.37;91.83
13486;BME280;6815;59.336;17.998;2023-04-06T02:05:58;52133.06;;;-145.37;91.92
13486;BME280;6815;59.336;17.998;2023-04-06T02:08:23;52177.00;;;-145.37;91.95
13486;BME280;6815;59.336;17.998;2023-04-06T02:10:49;52145.03;;;-145.37;91.54
13486;BME280;6815;59.336;17.998;2023-04-06T02:13:15;52178.97;;;-145.37;91.64
13486;BME280;6815;59.336;17.998;2023-04-06T02:15:40;52204.94;;;-145.37;91.46
13486;BME280;6815;59.336;17.998;2023-04-06T02:18:05;52153.03;;;-145.37;91.43
13486;BME280;6815;59.336;17.998;2023-04-06T02:20:31;52159.03;;;-145.37;91.18
13486;BME280;6815;59.336;17.998;2023-04-06T02:22:58;52161.03;;;-145.37;91.05
13486;BME280;6815;59.336;17.998;2023-04-06T02:25:25;52190.97;;;-145.37;91.64
13486;BME280;6815;59.336;17.998;2023-04-06T02:27:50;52151.03;;;-145.37;91.29
13486;BME280;6815;59.336;17.998;2023-04-06T02:30:16;52159.03;;;-145.37;91.50
13486;BME280;6815;59.336;17.998;2023-04-06T02:32:41;52180.97;;;-145.37;91.99
13486;BME280;6815;59.336;17.998;2023-04-06T02:35:07;52129.06;;;-145.37;91.71
13486;BME280;6815;59.336;17.998;2023-04-06T02:37:33;52149.03;;;-145.37;91.83
13486;BME280;6815;59.336;17.998;2023-04-06T02:39:58;52153.03;;;-145.37;92.37
13486;BME280;6815;59.336;17.998;2023-04-06T02:42:24;52169.00;;;-145.37;92.09
13486;BME280;6815;59.336;17.998;2023-04-06T02:44:49;52178.97;;;-145.37;92.04
13486;BME280;6815;59.336;17.998;2023-04-06T02:47:14;52167.00;;;-145.37;91.66
13486;BME280;6815;59.336;17.998;2023-04-06T02:49:40;52169.00;;;-145.37;91.73
13486;BME280;6815;59.336;17.998;2023-04-06T02:52:06;52159.03;;;-145.37;91.92
13486;BME280;6815;59.336;17.998;2023-04-06T02:54:31;52190.97;;;-145.37;92.04
13486;BME280;6815;59.336;17.998;2023-04-06T02:56:58;52167.00;;;-145.37;92.69
13486;BME280;6815;59.336;17.998;2023-04-06T02:59:23;52169.00;;;-145.37;92.85
13486;BME280;6815;59.336;17.998;2023-04-06T03:01:48;52163.00;;;-145.37;92.73
13486;BME280;6815;59.336;17.998;2023-04-06T03:04:14;52157.03;;;-145.37;92.23
13486;BME280;6815;59.336;17.998;2023-04-06T03:06:40;52177.00;;;-145.37;91.91
13486;BME280;6815;59.336;17.998;2023-04-06T03:09:06;52155.03;;;-145.37;92.02
13486;BME280;6815;59.336;17.998;2023-04-06T03:11:32;52129.06;;;-145.37;91.49
13486;BME280;6815;59.336;17.998;2023-04-06T03:13:57;52175.00;;;-145.37;91.20
13486;BME280;6815;59.336;17.998;2023-04-06T03:16:24;52143.06;;;-145.37;90.90
13486;BME280;6815;59.336;17.998;2023-04-06T03:18:51;52175.00;;;-145.37;90.53
13486;BME280;6815;59.336;17.998;2023-04-06T03:21:16;52169.00;;;-145.37;91.01
13486;BME280;6815;59.336;17.998;2023-04-06T03:23:42;52141.06;;;-145.37;90.76
13486;BME280;6815;59.336;17.998;2023-04-06T03:26:08;52169.00;;;-145.37;90.79
13486;BME280;6815;59.336;17.998;2023-04-06T03:28:33;52149.03;;;-145.37;90.68
13486;BME280;6815;59.336;17.998;2023-04-06T03:30:59;52161.03;;;-145.37;90.43
13486;BME280;6815;59.336;17.998;2023-04-06T03:33:24;52163.00;;;-145.37;90.62
13486;BME280;6815;59.336;17.998;2023-04-06T03:35:52;52208.94;;;-145.37;90.78
13486;BME280;6815;59.336;17.998;2023-04-06T03:38:18;52157.03;;;-145.37;91.04
13486;BME280;6815;59.336;17.998;2023-04-06T03:40:43;52192.97;;;-145.37;90.79
13486;BME280;6815;59.336;17.998;2023-04-06T03:43:09;52173.00;;;-145.37;90.73
13486;BME280;6815;59.336;17.998;2023-04-06T03:45:34;52190.97;;;-145.37;90.68
13486;BME280;6815;59.336;17.998;2023-04-06T03:48:00;52167.00;;;-145.37;90.45
13486;BME280;6815;59.336;17.998;2023-04-06T03:50:25;52157.03;;;-145.37;90.63
13486;BME280;6815;59.336;17.998;2023-04-06T03:52:51;52141.06;;;-145.37;89.65
13486;BME280;6815;59.336;17.998;2023-04-06T03:55:16;52178.97;;;-145.37;89.59
13486;BME280;6815;59.336;17.998;2023-04-06T03:57:42;52194.94;;;-145.37;89.86
13486;BME280;6815;59.336;17.998;2023-04-06T04:00:08;52177.00;;;-145.37;89.26
13486;BME280;6815;59.336;17.998;2023-04-06T04:02:34;52141.06;;;-145.37;89.40
13486;BME280;6815;59.336;17.998;2023-04-06T04:04:59;52159.03;;;-145.37;89.15
13486;BME280;6815;59.336;17.998;2023-04-06T04:07:25;52177.00;;;-145.37;88.50
13486;BME280;6815;59.336;17.998;2023-04-06T04:09:50;52178.97;;;-145.37;88.55
13486;BME280;6815;59.336;17.998;2023-04-06T04:12:16;52196.94;;;-145.37;88.65
13486;BME280;6815;59.336;17.998;2023-04-06T04:14:42;52167.00;;;-145.37;88.67
13486;BME280;6815;59.336;17.998;2023-04-06T04:17:07;52198.94;;;-145.37;88.62
13486;BME280;6815;59.336;17.998;2023-04-06T04:19:33;52182.97;;;-145.37;87.71
13486;BME280;6815;59.336;17.998;2023-04-06T04:21:59;52153.03;;;-145.37;87.19
13486;BME280;6815;59.336;17.998;2023-04-06T04:24:24;52171.00;;;-145.37;86.83
13486;BME280;6815;59.336;17.998;2023-04-06T04:26:49;52151.03;;;-145.37;87.15
13486;BME280;6815;59.336;17.998;2023-04-06T04:29:15;52147.03;;;-145.37;86.74
13486;BME280;6815;59.336;17.998;2023-04-06T04:31:41;52186.97;;;-145.37;86.14
13486;BME280;6815;59.336;17.998;2023-04-06T04:34:07;52161.03;;;-145.37;86.42
13486;BME280;6815;59.336;17.998;2023-04-06T04:36:32;52175.00;;;-145.37;86.41
13486;BME280;6815;59.336;17.998;2023-04-06T04:38:58;52149.03;;;-145.37;86.39
13486;BME280;6815;59.336;17.998;2023-04-06T04:41:24;52188.97;;;-145.37;86.25
13486;BME280;6815;59.336;17.998;2023-04-06T04:43:49;52171.00;;;-145.37;85.92
13486;BME280;6815;59.336;17.998;2023-04-06T04:46:14;52198.94;;;-145.37;86.08
13486;BME280;6815;59.336;17.998;2023-04-06T04:48:40;52194.94;;;-145.37;85.54
13486;BME280;6815;59.336;17.998;2023-04-06T04:51:05;52182.97;;;-145.37;85.47
13486;BME280;6815;59.336;17.998;2023-04-06T04:53:31;52133.06;;;-145.37;85.46
13486;BME280;6815;59.336;17.998;2023-04-06T04:55:56;52204.94;;;-145.37;85.16
13486;BME280;6815;59.336;17.998;2023-04-06T04:58:22;52186.97;;;-145.37;85.09
13486;BME280;6815;59.336;17.998;2023-04-06T05:00:48;52173.00;;;-145.37;84.95
13486;BME280;6815;59.336;17.998;2023-04-06T05:03:25;52165.00;;;-145.37;84.32
13486;BME280;6815;59.336;17.998;2023-04-06T05:05:51;52192.97;;;-145.37;84.52
13486;BME280;6815;59.336;17.998;2023-04-06T05:08:17;52173.00;;;-145.37;83.84
13486;BME280;6815;59.336;17.998;2023-04-06T05:10:43;52171.00;;;-145.37;83.56
13486;BME280;6815;59.336;17.998;2023-04-06T05:13:09;52184.97;;;-145.37;83.45
13486;BME280;6815;59.336;17.998;2023-04-06T05:15:35;52141.06;;;-145.37;84.00
13486;BME280;6815;59.336;17.998;2023-04-06T05:18:06;52151.03;;;-145.37;83.82
13486;BME280;6815;59.336;17.998;2023-04-06T05:20:31;52167.00;;;-145.37;83.29
13486;BME280;6815;59.336;17.998;2023-04-06T05:22:57;52178.97;;;-145.37;82.66
13486;BME280;6815;59.336;17.998;2023-04-06T05:25:22;52177.00;;;-145.37;82.86
13486;BME280;6815;59.336;17.998;2023-04-06T05:27:48;52159.03;;;-145.37;82.37
13486;BME280;6815;59.336;17.998;2023-04-06T05:30:14;52169.00;;;-145.37;82.32
13486;BME280;6815;59.336;17.998;2023-04-06T05:32:40;52151.03;;;-145.37;81.93
13486;BME280;6815;59.336;17.998;2023-04-06T05:35:05;52163.00;;;-145.37;81.84
13486;BME280;6815;59.336;17.998;2023-04-06T05:37:31;52196.94;;;-145.37;81.10
13486;BME280;6815;59.336;17.998;2023-04-06T05:39:56;52173.00;;;-145.37;80.63
13486;BME280;6815;59.336;17.998;2023-04-06T05:42:22;52171.00;;;-145.37;80.94
13486;BME280;6815;59.336;17.998;2023-04-06T05:44:48;52171.00;;;-145.37;80.54
13486;BME280;6815;59.336;17.998;2023-04-06T05:47:13;52204.94;;;-145.37;80.94
13486;BME280;6815;59.336;17.998;2023-04-06T05:49:39;52177.00;;;-145.37;80.21
13486;BME280;6815;59.336;17.998;2023-04-06T05:52:04;52165.00;;;-145.37;80.17
13486;BME280;6815;59.336;17.998;2023-04-06T05:54:30;52151.03;;;-145.37;79.36
13486;BME280;6815;59.336;17.998;2023-04-06T05:56:55;52206.94;;;-145.37;79.49
13486;BME280;6815;59.336;17.998;2023-04-06T05:59:20;52157.03;;;-145.37;79.15
13486;BME280;6815;59.336;17.998;2023-04-06T06:01:46;52202.94;;;-145.37;79.56
13486;BME280;6815;59.336;17.998;2023-04-06T06:04:13;52149.03;;;-145.37;79.72
13486;BME280;6815;59.336;17.998;2023-04-06T06:06:38;52163.00;;;-145.37;79.78
13486;BME280;6815;59.336;17.998;2023-04-06T06:09:04;52175.00;;;-145.37;80.38
13486;BME280;6815;59.336;17.998;2023-04-06T06:11:29;52177.00;;;-145.37;80.76
13486;BME280;6815;59.336;17.998;2023-04-06T06:13:56;52177.00;;;-145.37;80.48
13486;BME280;6815;59.336;17.998;2023-04-06T06:16:21;52169.00;;;-145.37;80.12
13486;BME280;6815;59.336;17.998;2023-04-06T06:18:47;52173.00;;;-145.37;80.50
13486;BME280;6815;59.336;17.998;2023-04-06T06:21:13;52194.94;;;-145.37;80.54
13486;BME280;6815;59.336;17.998;2023-04-06T06:23:38;52216.91;;;-145.37;80.55
13486;BME280;6815;59.336;17.998;2023-04-06T06:26:04;52188.97;;;-145.37;80.74
13486;BME280;6815;59.336;17.998;2023-04-06T06:28:30;52182.97;;;-145.37;80.90
13486;BME280;6815;59.336;17.998;2023-04-06T06:30:56;52157.03;;;-145.37;81.51
13486;BME280;6815;59.336;17.998;2023-04-06T06:33:21;52173.00;;;-145.37;81.55
13486;BME280;6815;59.336;17.998;2023-04-06T06:35:47;52208.94;;;-145.37;81.37
13486;BME280;6815;59.336;17.998;2023-04-06T06:38:12;52206.94;;;-145.37;81.01
13486;BME280;6815;59.336;17.998;2023-04-06T06:40:39;52161.03;;;-145.37;80.62
13486;BME280;6815;59.336;17.998;2023-04-06T06:43:05;52204.94;;;-145.37;80.71
13486;BME280;6815;59.336;17.998;2023-04-06T06:45:31;52192.97;;;-145.37;80.76
13486;BME280;6815;59.336;17.998;2023-04-06T06:47:56;52177.00;;;-145.37;79.54
13486;BME280;6815;59.336;17.998;2023-04-06T06:50:22;52151.03;;;-145.37;79.23
13486;BME280;6815;59.336;17.998;2023-04-06T06:52:47;52194.94;;;-145.37;78.28
13486;BME280;6815;59.336;17.998;2023-04-06T06:55:13;52188.97;;;-145.37;78.15
13486;BME280;6815;59.336;17.998;2023-04-06T06:57:38;52204.94;;;-145.37;78.38
13486;BME280;6815;59.336;17.998;2023-04-06T07:00:05;52186.97;;;-145.37;77.70
13486;BME280;6815;59.336;17.998;2023-04-06T07:02:34;52184.97;;;-145.37;77.88
13486;BME280;6815;59.336;17.998;2023-04-06T07:05:01;52196.94;;;-145.37;78.00
13486;BME280;6815;59.336;17.998;2023-04-06T07:07:27;52155.03;;;-145.37;77.63
13486;BME280;6815;59.336;17.998;2023-04-06T07:09:53;52163.00;;;-145.37;77.86
13486;BME280;6815;59.336;17.998;2023-04-06T07:12:18;52177.00;;;-145.37;77.58
13486;BME280;6815;59.336;17.998;2023-04-06T07:14:43;52196.94;;;-145.37;76.74
13486;BME280;6815;59.336;17.998;2023-04-06T07:17:09;52135.06;;;-145.37;76.32
13486;BME280;6815;59.336;17.998;2023-04-06T07:19:35;52212.91;;;-145.37;76.01
13486;BME280;6815;59.336;17.998;2023-04-06T07:22:00;52212.91;;;-145.37;75.47
13486;BME280;6815;59.336;17.998;2023-04-06T07:24:27;52188.97;;;-145.37;75.39
13486;BME280;6815;59.336;17.998;2023-04-06T07:26:53;52226.91;;;-145.37;75.43
13486;BME280;6815;59.336;17.998;2023-04-06T07:29:18;52202.94;;;-145.37;75.44
13486;BME280;6815;59.336;17.998;2023-04-06T07:31:44;52200.94;;;-145.37;75.55
13486;BME280;6815;59.336;17.998;2023-04-06T07:34:10;52167.00;;;-145.37;74.00
13486;BME280;6815;59.336;17.998;2023-04-06T07:36:35;52163.00;;;-145.37;73.87
13486;BME280;6815;59.336;17.998;2023-04-06T07:39:01;52180.97;;;-145.37;73.00
13486;BME280;6815;59.336;17.998;2023-04-06T07:41:27;52188.97;;;-145.37;72.24
13486;BME280;6815;59.336;17.998;2023-04-06T07:43:52;52178.97;;;-145.37;72.20
13486;BME280;6815;59.336;17.998;2023-04-06T07:46:18;52180.97;;;-145.37;71.76
13486;BME280;6815;59.336;17.998;2023-04-06T07:48:43;52173.00;;;-145.37;71.21
13486;BME280;6815;59.336;17.998;2023-04-06T07:51:09;52192.97;;;-145.37;72.00
13486;BME280;6815;59.336;17.998;2023-04-06T07:53:39;52188.97;;;-145.37;70.82
13486;BME280;6815;59.336;17.998;2023-04-06T07:56:05;52188.97;;;-145.37;71.10
13486;BME280;6815;59.336;17.998;2023-04-06T07:58:30;52216.91;;;-145.37;71.42
13486;BME280;6815;59.336;17.998;2023-04-06T08:00:56;52159.03;;;-145.37;70.82
13486;BME280;6815;59.336;17.998;2023-04-06T08:03:23;52202.94;;;-145.37;70.34
13486;BME280;6815;59.336;17.998;2023-04-06T08:05:51;52206.94;;;-145.37;70.56
13486;BME280;6815;59.336;17.998;2023-04-06T08:08:18;52182.97;;;-145.37;68.99
13486;BME280;6815;59.336;17.998;2023-04-06T08:10:43;52204.94;;;-145.37;69.08
13486;BME280;6815;59.336;17.998;2023-04-06T08:13:09;52206.94;;;-145.37;69.42
13486;BME280;6815;59.336;17.998;2023-04-06T08:15:34;52192.97;;;-145.37;67.87
13486;BME280;6815;59.336;17.998;2023-04-06T08:18:00;52178.97;;;-145.37;66.77
13486;BME280;6815;59.336;17.998;2023-04-06T08:20:25;52159.03;;;-145.37;66.50
13486;BME280;6815;59.336;17.998;2023-04-06T08:22:51;52212.91;;;-145.37;65.57
13486;BME280;6815;59.336;17.998;2023-04-06T08:25:16;52169.00;;;-145.37;65.02
13486;BME280;6815;59.336;17.998;2023-04-06T08:27:42;52177.00;;;-145.37;63.33
13486;BME280;6815;59.336;17.998;2023-04-06T08:30:08;52216.91;;;-145.37;62.99
13486;BME280;6815;59.336;17.998;2023-04-06T08:32:33;52184.97;;;-145.37;63.74
13486;BME280;6815;59.336;17.998;2023-04-06T08:34:59;52200.94;;;-145.37;62.98
13486;BME280;6815;59.336;17.998;2023-04-06T08:37:24;52178.97;;;-145.37;63.28
13486;BME280;6815;59.336;17.998;2023-04-06T08:39:50;52202.94;;;-145.37;62.46
13486;BME280;6815;59.336;17.998;2023-04-06T08:42:20;52210.91;;;-145.37;63.04
13486;BME280;6815;59.336;17.998;2023-04-06T08:44:46;52180.97;;;-145.37;62.25
13486;BME280;6815;59.336;17.998;2023-04-06T08:47:12;52171.00;;;-145.37;61.69
13486;BME280;6815;59.336;17.998;2023-04-06T08:49:39;52184.97;;;-145.37;62.83
13486;BME280;6815;59.336;17.998;2023-04-06T08:52:10;52204.94;;;-145.37;61.83
13486;BME280;6815;59.336;17.998;2023-04-06T08:54:36;52194.94;;;-145.37;62.19
13486;BME280;6815;59.336;17.998;2023-04-06T08:57:02;52177.00;;;-145.37;60.80
13486;BME280;6815;59.336;17.998;2023-04-06T08:59:28;52204.94;;;-145.37;59.67
13486;BME280;6815;59.336;17.998;2023-04-06T09:01:55;52198.94;;;-145.37;61.21
13486;BME280;6815;59.336;17.998;2023-04-06T09:04:20;52169.00;;;-145.37;59.80
13486;BME280;6815;59.336;17.998;2023-04-06T09:06:46;52196.94;;;-145.37;60.35
13486;BME280;6815;59.336;17.998;2023-04-06T09:09:12;52240.88;;;-145.37;59.87
13486;BME280;6815;59.336;17.998;2023-04-06T09:11:51;52196.94;;;-145.37;59.04
13486;BME280;6815;59.336;17.998;2023-04-06T09:14:29;52232.88;;;-145.37;59.36
13486;BME280;6815;59.336;17.998;2023-04-06T09:16:57;52163.00;;;-145.37;59.92
13486;BME280;6815;59.336;17.998;2023-04-06T09:19:24;52173.00;;;-145.37;59.61
13486;BME280;6815;59.336;17.998;2023-04-06T09:21:49;52210.91;;;-145.37;59.02
13486;BME280;6815;59.336;17.998;2023-04-06T09:24:15;52182.97;;;-145.37;58.90
13486;BME280;6815;59.336;17.998;2023-04-06T09:26:46;52139.06;;;-145.37;59.32
13486;BME280;6815;59.336;17.998;2023-04-06T09:29:22;52177.00;;;-145.37;59.64
13486;BME280;6815;59.336;17.998;2023-04-06T09:31:49;52192.97;;;-145.37;58.47
13486;BME280;6815;59.336;17.998;2023-04-06T09:34:22;52182.97;;;-145.37;58.44
13486;BME280;6815;59.336;17.998;2023-04-06T09:36:49;52177.00;;;-145.37;58.44
13486;BME280;6815;59.336;17.998;2023-04-06T09:39:20;52165.00;;;-145.37;58.53
13486;BME280;6815;59.336;17.998;2023-04-06T09:41:50;52208.94;;;-145.37;57.57
13486;BME280;6815;59.336;17.998;2023-04-06T09:44:15;52196.94;;;-145.37;58.18
13486;BME280;6815;59.336;17.998;2023-04-06T09:46:42;52184.97;;;-145.37;57.95
13486;BME280;6815;59.336;17.998;2023-04-06T09:49:09;52178.97;;;-145.37;58.48
13486;BME280;6815;59.336;17.998;2023-04-06T09:54:04;52208.94;;;-145.37;59.08
13486;BME280;6815;59.336;17.998;2023-04-06T09:56:36;52182.97;;;-145.37;57.91
13486;BME280;6815;59.336;17.998;2023-04-06T09:59:08;52180.97;;;-145.37;57.75
13486;BME280;6815;59.336;17.998;2023-04-06T10:01:35;52190.97;;;-145.37;57.61
13486;BME280;6815;59.336;17.998;2023-04-06T10:06:34;52210.91;;;-145.37;57.15
13486;BME280;6815;59.336;17.998;2023-04-06T10:09:02;52192.97;;;-145.37;57.53
13486;BME280;6815;59.336;17.998;2023-04-06T10:11:30;52202.94;;;-145.37;57.81
13486;BME280;6815;59.336;17.998;2023-04-06T10:13:56;52184.97;;;-145.37;57.99
13486;BME280;6815;59.336;17.998;2023-04-06T10:16:22;52177.00;;;-145.37;57.76
13486;BME280;6815;59.336;17.998;2023-04-06T10:18:58;52200.94;;;-145.37;57.53
13486;BME280;6815;59.336;17.998;2023-04-06T10:21:25;52173.00;;;-145.37;57.79
13486;BME280;6815;59.336;17.998;2023-04-06T10:23:54;52190.97;;;-145.37;57.91
13486;BME280;6815;59.336;17.998;2023-04-06T10:26:21;52200.94;;;-145.37;58.30
13486;BME280;6815;59.336;17.998;2023-04-06T10:28:48;52184.97;;;-145.37;57.95
13486;BME280;6815;59.336;17.998;2023-04-06T10:31:15;52240.88;;;-145.37;57.02
13486;BME280;6815;59.336;17.998;2023-04-06T10:33:41;52186.97;;;-145.37;56.55
13486;BME280;6815;59.336;17.998;2023-04-06T10:36:13;52186.97;;;-145.37;56.56
13486;BME280;6815;59.336;17.998;2023-04-06T10:38:40;52268.81;;;-145.37;56.85
13486;BME280;6815;59.336;17.998;2023-04-06T10:41:11;52180.97;;;-145.37;57.38
13486;BME280;6815;59.336;17.998;2023-04-06T10:43:38;52163.00;;;-145.37;57.51
13486;BME280;6815;59.336;17.998;2023-04-06T10:46:06;52184.97;;;-145.37;56.71
13486;BME280;6815;59.336;17.998;2023-04-06T10:48:40;52204.94;;;-145.37;56.87
13486;BME280;6815;59.336;17.998;2023-04-06T10:51:11;52210.91;;;-145.37;57.05
13486;BME280;6815;59.336;17.998;2023-04-06T10:53:38;52171.00;;;-145.37;56.10
13486;BME280;6815;59.336;17.998;2023-04-06T10:56:09;52232.88;;;-145.37;56.31
13486;BME280;6815;59.336;17.998;2023-04-06T10:58:36;52218.91;;;-145.37;56.23
13486;BME280;6815;59.336;17.998;2023-04-06T11:01:02;52220.91;;;-145.37;55.83
13486;BME280;6815;59.336;17.998;2023-04-06T11:03:27;52220.91;;;-145.37;56.40
13486;BME280;6815;59.336;17.998;2023-04-06T11:05:52;52208.94;;;-145.37;56.36
13486;BME280;6815;59.336;17.998;2023-04-06T11:08:30;52149.03;;;-145.37;56.53
13486;BME280;6815;59.336;17.998;2023-04-06T11:11:11;52212.91;;;-145.37;55.90
13486;BME280;6815;59.336;17.998;2023-04-06T11:16:19;52212.91;;;-145.37;56.32
13486;BME280;6815;59.336;17.998;2023-04-06T11:18:52;52214.91;;;-145.37;56.12
13486;BME280;6815;59.336;17.998;2023-04-06T11:21:19;52200.94;;;-145.37;55.76
13486;BME280;6815;59.336;17.998;2023-04-06T11:23:45;52218.91;;;-145.37;54.88
13486;BME280;6815;59.336;17.998;2023-04-06T11:26:12;52180.97;;;-145.37;55.42
13486;BME280;6815;59.336;17.998;2023-04-06T11:28:39;52204.94;;;-145.37;55.49
13486;BME280;6815;59.336;17.998;2023-04-06T11:31:06;52216.91;;;-145.37;55.74
13486;BME280;6815;59.336;17.998;2023-04-06T11:33:38;52250.84;;;-145.37;55.87
13486;BME280;6815;59.336;17.998;2023-04-06T11:36:07;52228.88;;;-145.37;55.48
13486;BME280;6815;59.336;17.998;2023-04-06T11:38:32;52173.00;;;-145.37;55.38
13486;BME280;6815;59.336;17.998;2023-04-06T11:40:58;52204.94;;;-145.37;56.01
13486;BME280;6815;59.336;17.998;2023-04-06T11:43:30;52190.97;;;-145.37;55.31
13486;BME280;6815;59.336;17.998;2023-04-06T11:46:03;52234.88;;;-145.37;55.29
13486;BME280;6815;59.336;17.998;2023-04-06T11:48:30;52212.91;;;-145.37;55.72
13486;BME280;6815;59.336;17.998;2023-04-06T11:50:57;52196.94;;;-145.37;55.98
13486;BME280;6815;59.336;17.998;2023-04-06T11:53:23;52184.97;;;-145.37;55.00
13486;BME280;6815;59.336;17.998;2023-04-06T11:55:48;52178.97;;;-145.37;54.77
13486;BME280;6815;59.336;17.998;2023-04-06T11:58:14;52188.97;;;-145.37;54.54
13486;BME280;6815;59.336;17.998;2023-04-06T12:00:40;52230.88;;;-145.37;54.95
13486;BME280;6815;59.336;17.998;2023-04-06T12:03:11;52192.97;;;-145.37;54.65
13486;BME280;6815;59.336;17.998;2023-04-06T12:05:36;52184.97;;;-145.37;54.77
13486;BME280;6815;59.336;17.998;2023-04-06T12:08:02;52194.94;;;-145.37;54.69
13486;BME280;6815;59.336;17.998;2023-04-06T12:10:27;52178.97;;;-145.37;54.23
13486;BME280;6815;59.336;17.998;2023-04-06T12:12:53;52190.97;;;-145.37;54.22
13486;BME280;6815;59.336;17.998;2023-04-06T12:15:18;52184.97;;;-145.37;53.40
13486;BME280;6815;59.336;17.998;2023-04-06T12:17:56;52224.91;;;-145.37;54.14
13486;BME280;6815;59.336;17.998;2023-04-06T12:20:22;52202.94;;;-145.37;54.08
13486;BME280;6815;59.336;17.998;2023-04-06T12:22:47;52200.94;;;-145.37;53.86
13486;BME280;6815;59.336;17.998;2023-04-06T12:25:13;52256.84;;;-145.37;54.10
13486;BME280;6815;59.336;17.998;2023-04-06T12:27:38;52184.97;;;-145.37;54.59
13486;BME280;6815;59.336;17.998;2023-04-06T12:30:04;52169.00;;;-145.37;54.38
13486;BME280;6815;59.336;17.998;2023-04-06T12:32:30;52212.91;;;-145.37;54.48
13486;BME280;6815;59.336;17.998;2023-04-06T12:34:56;52196.94;;;-145.37;54.80
13486;BME280;6815;59.336;17.998;2023-04-06T12:37:21;52196.94;;;-145.37;54.83
13486;BME280;6815;59.336;17.998;2023-04-06T12:39:47;52175.00;;;-145.37;54.88
13486;BME280;6815;59.336;17.998;2023-04-06T12:42:13;52228.88;;;-145.37;55.41
13486;BME280;6815;59.336;17.998;2023-04-06T12:44:39;52171.00;;;-145.37;55.59